Main page
METAR-TAF:

METAR-TAF

Airports :

Imperatriz Airport

Imperatriz, Maranhão, Brazil

latitude: 05-32S, longitude: 047-30W, elevation: 123 m

Current weather observation

The report was made 7 hours and 56 minutes ago, at 19:00 UTC
Calm wind
Temperature 34°C
Humidity 53%
Pressure 1007 hPa
Visibility 10 km or more
Broken clouds at a height of 2000 ft

METAR: SBIZ 141900Z 00000KT 9999 BKN020 34/23 Q1007

Time: 23:56 (02:56 UTC)

Forecast

The report was made 4 hours and 56 minutes ago, at 22:00 UTC
Forecast valid from 15 at 00 UTC to 15 at 12 UTC
Wind kt from the North
Visibility 10 km or more
Few clouds at a height of 2000 ft
Becoming
from 15 at 09 UTC to 15 at 11 UTC
Wind 5 kt from the East

TAF: SBIZ 142200Z 1500/1512 00000KT 9999 FEW020 TN25/1506Z TX30/1512Z BECMG 1509/1511 09005KT RMK PEH

Weather observations and forecasts of more than 4000 airports (METAR and TAF reports).

The available stations are represented by yellow and red dots on the map.

Hover mouse over dot to see the name of the station.

Then click to see weather observations and forecasts.

To change the map : click on the green buttons with a black cross to zoom in, on the green button with a dash to zoom out, or on the green arrows for adjacent maps.


METAR-TAF: